Time;durP1;ratioP1;P1;durP2;ratioP2;P2;SDS_P1;SDS_P2;PMS_P1;PMS_P2;Temp;Humidity;BMP_temperature;BMP_pressure;BME280_temperature;BME280_humidity;BME280_pressure;Samples;Min_cycle;Max_cycle;Signal;HPM_P1;HPM_P2
2023/04/14 00:00:51;;;;;;;8.07;2.60;;;4.80;99.90;;;;;;4997077;28;20548;-83
2023/04/14 00:03:17;;;;;;;7.90;2.40;;;4.60;99.90;;;;;;5014994;28;20077;-83
2023/04/14 00:05:42;;;;;;;8.30;2.47;;;4.60;99.90;;;;;;4997504;28;20502;-83
2023/04/14 00:08:11;;;;;;;7.60;2.40;;;4.50;99.90;;;;;;5014338;28;20045;-83
2023/04/14 00:10:36;;;;;;;10.27;2.60;;;4.30;99.90;;;;;;5015090;28;20128;-83
2023/04/14 00:13:02;;;;;;;8.43;2.63;;;4.20;99.90;;;;;;5015327;28;20125;-83
2023/04/14 00:15:28;;;;;;;8.17;2.50;;;4.10;99.90;;;;;;5014619;28;20433;-83
2023/04/14 00:17:53;;;;;;;8.07;2.37;;;4.00;99.90;;;;;;4997428;28;20041;-83
2023/04/14 00:20:19;;;;;;;9.03;2.70;;;3.90;99.90;;;;;;4997089;28;20486;-83
2023/04/14 00:22:44;;;;;;;10.57;2.80;;;3.90;99.90;;;;;;4996730;28;20536;-83
2023/04/14 00:25:10;;;;;;;9.67;2.50;;;3.80;99.90;;;;;;5014690;28;20049;-83
2023/04/14 00:27:44;;;;;;;9.60;2.83;;;3.70;99.90;;;;;;4996396;28;20045;-83
2023/04/14 00:30:10;;;;;;;10.07;2.57;;;3.40;99.90;;;;;;4997107;28;20398;-83
2023/04/14 00:32:36;;;;;;;7.80;2.90;;;3.50;99.90;;;;;;5014595;28;20042;-83
2023/04/14 00:35:02;;;;;;;9.13;3.13;;;3.40;99.90;;;;;;4996100;28;20049;-83
2023/04/14 00:37:45;;;;;;;;;;;3.30;99.90;;;;;;5015296;28;20046;-83
2023/04/14 00:40:11;;;;;;;7.80;2.60;;;3.10;99.90;;;;;;4996912;28;19921;-84
2023/04/14 00:43:01;;;;;;;8.93;3.00;;;3.20;99.90;;;;;;5011193;28;20104;-83
2023/04/14 00:49:16;;;;;;;8.33;2.93;;;2.40;99.90;;;;;;5013303;28;20076;-83
2023/04/14 00:51:44;;;;;;;8.07;2.60;;;3.30;99.90;;;;;;5013381;28;20132;-83
2023/04/14 00:54:11;;;;;;;9.37;3.10;;;2.90;99.90;;;;;;5013813;28;20486;-83
2023/04/14 00:56:37;;;;;;;8.57;3.00;;;2.80;99.90;;;;;;4995989;28;20073;-83
2023/04/14 00:59:05;;;;;;;8.77;3.30;;;2.80;99.90;;;;;;4996237;28;20092;-83
2023/04/14 01:01:36;;;;;;;10.70;3.30;;;2.80;99.90;;;;;;4996588;28;20049;-83
2023/04/14 01:04:02;;;;;;;9.23;3.27;;;2.80;99.90;;;;;;4995445;28;20057;-83
2023/04/14 01:06:28;;;;;;;11.90;3.73;;;2.70;99.90;;;;;;5031772;28;20477;-84
2023/04/14 01:08:54;;;;;;;9.47;3.33;;;2.70;99.90;;;;;;5015173;28;20095;-83
2023/04/14 01:11:35;;;;;;;9.13;3.33;;;2.70;99.90;;;;;;5013279;28;20042;-84
2023/04/14 01:14:11;;;;;;;10.77;3.77;;;2.70;99.90;;;;;;5013676;28;20405;-84
2023/04/14 01:16:39;;;;;;;9.53;3.30;;;2.70;99.90;;;;;;4996366;28;20371;-84
2023/04/14 01:19:26;;;;;;;11.40;3.50;;;2.70;99.90;;;;;;4995342;28;20405;-84
2023/04/14 01:22:00;;;;;;;10.13;3.70;;;2.70;99.90;;;;;;4996068;28;20050;-84
2023/04/14 01:24:38;;;;;;;10.60;3.40;;;2.80;99.90;;;;;;4995278;28;20367;-83
2023/04/14 01:27:31;;;;;;;9.30;3.63;;;2.80;99.90;;;;;;5013425;28;20054;-84
2023/04/14 01:30:15;;;;;;;9.43;3.67;;;2.90;99.90;;;;;;4995921;28;20100;-84
2023/04/14 01:32:44;;;;;;;10.98;3.80;;;3.00;99.90;;;;;;4995145;28;20050;-84
2023/04/14 01:35:16;;;;;;;10.03;3.73;;;3.10;99.90;;;;;;5013334;28;20137;-84
2023/04/14 01:37:53;;;;;;;9.53;3.67;;;3.10;99.90;;;;;;4995927;28;20387;-84
2023/04/14 01:40:19;;;;;;;11.30;4.30;;;3.20;99.90;;;;;;4995757;28;20077;-84
2023/04/14 01:42:50;;;;;;;11.37;3.70;;;3.20;99.90;;;;;;5013413;28;20092;-84
2023/04/14 01:45:23;;;;;;;10.00;4.00;;;3.30;99.90;;;;;;4995198;28;20064;-84
2023/04/14 01:47:51;;;;;;;12.57;3.83;;;3.30;99.90;;;;;;4995795;28;20060;-84
2023/04/14 01:50:18;;;;;;;12.03;4.00;;;3.30;99.90;;;;;;4995240;28;20056;-84
2023/04/14 01:52:46;;;;;;;15.80;4.20;;;3.90;99.90;;;;;;4994594;28;20812;-84
2023/04/14 01:55:18;;;;;;;11.33;4.17;;;3.40;99.90;;;;;;5012551;28;20064;-84
2023/04/14 01:57:47;;;;;;;11.07;4.00;;;3.40;99.90;;;;;;4990679;28;20129;-84
2023/04/14 02:00:15;;;;;;;10.83;3.40;;;3.50;99.90;;;;;;4990130;28;20518;-84
2023/04/14 02:02:43;;;;;;;13.23;3.80;;;3.50;99.90;;;;;;4989887;28;20141;-84
2023/04/14 02:05:10;;;;;;;11.43;3.60;;;3.50;99.90;;;;;;4973961;28;20050;-84
2023/04/14 02:07:36;;;;;;;14.20;3.70;;;3.50;99.90;;;;;;4989543;28;20054;-84
2023/04/14 02:10:04;;;;;;;13.53;3.60;;;3.50;99.90;;;;;;4991014;28;20042;-84
2023/04/14 02:12:31;;;;;;;13.33;3.70;;;3.50;99.90;;;;;;4991069;28;20065;-84
2023/04/14 02:14:59;;;;;;;12.23;3.53;;;3.50;99.90;;;;;;4990325;28;20050;-84
2023/04/14 02:17:26;;;;;;;12.00;3.43;;;3.50;99.90;;;;;;4974829;28;20054;-84
2023/04/14 02:19:53;;;;;;;13.80;4.03;;;5.00;99.90;;;;;;4991161;28;20038;-84
2023/04/14 02:22:19;;;;;;;10.43;3.47;;;3.60;99.90;;;;;;4974087;28;20414;-84
2023/04/14 02:24:46;;;;;;;11.83;3.90;;;3.60;99.90;;;;;;4991239;28;20054;-84
2023/04/14 02:27:28;;;;;;;11.33;3.40;;;3.60;99.90;;;;;;4989909;28;20038;-84
2023/04/14 02:29:57;;;;;;;10.37;3.37;;;3.70;99.90;;;;;;4995196;28;20080;-84
2023/04/14 02:32:27;;;;;;;11.73;3.73;;;3.80;99.90;;;;;;5012658;28;20042;-84
2023/04/14 02:35:00;;;;;;;10.70;3.73;;;3.70;99.90;;;;;;4994408;28;20046;-84
2023/04/14 02:37:31;;;;;;;12.33;3.60;;;3.80;99.90;;;;;;5012494;28;20116;-84
2023/04/14 02:40:02;;;;;;;10.57;3.80;;;3.80;99.90;;;;;;5012073;28;20143;-84
2023/04/14 02:42:30;;;;;;;11.53;3.87;;;3.90;99.90;;;;;;4994352;28;20192;-84
2023/04/14 02:45:02;;;;;;;13.60;3.80;;;3.90;99.90;;;;;;5011580;28;20509;-84
2023/04/14 02:47:34;;;;;;;13.10;4.07;;;3.90;99.90;;;;;;4994647;28;20054;-84
2023/04/14 02:50:02;;;;;;;13.03;3.50;;;3.90;99.90;;;;;;5011412;28;20474;-84
2023/04/14 02:52:30;;;;;;;12.57;3.70;;;3.90;99.90;;;;;;4994579;28;20120;-84
2023/04/14 02:54:57;;;;;;;12.40;3.50;;;4.00;99.90;;;;;;4994857;28;20046;-84
2023/04/14 02:57:24;;;;;;;12.07;4.20;;;3.90;99.90;;;;;;5011832;28;20116;-84
2023/04/14 02:59:51;;;;;;;13.97;4.00;;;3.90;99.90;;;;;;4995032;28;20078;-84
2023/04/14 03:02:17;;;;;;;10.87;4.17;;;4.00;99.90;;;;;;4993927;28;20058;-84
2023/04/14 03:04:43;;;;;;;11.53;3.87;;;3.90;99.90;;;;;;4994481;28;20111;-84
2023/04/14 03:07:11;;;;;;;13.50;4.50;;;3.90;99.90;;;;;;5012235;28;20429;-84
2023/04/14 03:09:39;;;;;;;14.53;3.60;;;3.80;99.90;;;;;;5011400;28;20046;-84
2023/04/14 03:12:06;;;;;;;13.53;3.97;;;5.10;99.90;;;;;;4994343;28;20077;-83
2023/04/14 03:14:34;;;;;;;10.20;3.70;;;3.70;99.90;;;;;;4995491;28;20422;-84
2023/04/14 03:17:01;;;;;;;11.97;4.40;;;3.60;99.90;;;;;;4997664;28;20457;-84
2023/04/14 03:19:28;;;;;;;12.00;3.97;;;3.60;99.90;;;;;;4998521;28;20104;-84
2023/04/14 03:21:58;;;;;;;9.97;3.50;;;3.50;99.90;;;;;;5016032;28;20041;-84
2023/04/14 03:24:29;;;;;;;11.43;4.20;;;3.40;99.90;;;;;;4997544;28;20538;-84
2023/04/14 03:27:00;;;;;;;11.17;3.93;;;3.10;99.90;;;;;;5015673;28;20053;-84
2023/04/14 03:29:30;;;;;;;11.63;4.13;;;3.20;99.90;;;;;;4998516;28;20046;-84
2023/04/14 03:31:59;;;;;;;10.83;4.30;;;3.10;99.90;;;;;;5015104;28;20041;-84
2023/04/14 03:34:28;;;;;;;11.33;4.10;;;3.10;99.90;;;;;;4997945;28;20124;-84
2023/04/14 03:36:56;;;;;;;14.50;4.30;;;2.90;99.90;;;;;;4998135;28;20042;-83
2023/04/14 03:39:29;;;;;;;14.07;4.60;;;2.80;99.90;;;;;;4997327;28;20042;-84
2023/04/14 03:41:58;;;;;;;11.95;4.25;;;2.80;99.90;;;;;;5015357;28;20041;-84
2023/04/14 03:44:26;;;;;;;10.73;4.27;;;2.80;99.90;;;;;;5015620;28;20045;-84
2023/04/14 03:46:53;;;;;;;11.73;4.30;;;3.00;99.90;;;;;;5015046;28;20038;-84
2023/04/14 03:49:20;;;;;;;10.93;4.23;;;2.60;99.90;;;;;;4997480;28;20060;-84
2023/04/14 03:51:48;;;;;;;11.27;4.33;;;3.90;99.90;;;;;;4997153;28;20476;-84
2023/04/14 03:54:15;;;;;;;11.83;4.40;;;2.50;99.90;;;;;;4997056;28;20445;-84
2023/04/14 03:56:44;;;;;;;10.23;4.23;;;2.50;99.90;;;;;;4997505;28;20046;-84
2023/04/14 03:59:13;;;;;;;10.70;4.37;;;2.40;99.90;;;;;;5014393;28;20045;-84
2023/04/14 04:01:40;;;;;;;10.57;4.20;;;2.40;99.90;;;;;;4997302;28;20053;-83
2023/04/14 04:04:06;;;;;;;10.63;4.43;;;2.30;99.90;;;;;;5014114;28;20046;-84
2023/04/14 04:06:32;;;;;;;12.97;5.07;;;2.30;99.90;;;;;;5001654;28;20545;-84
2023/04/14 04:09:00;;;;;;;17.17;4.63;;;2.20;99.90;;;;;;5007506;28;20080;-84
2023/04/14 04:11:27;;;;;;;12.50;5.10;;;2.20;99.90;;;;;;5014619;28;20569;-84
2023/04/14 04:13:54;;;;;;;13.10;4.73;;;2.10;99.90;;;;;;4996515;28;20056;-84
2023/04/14 04:16:21;;;;;;;12.67;4.77;;;2.10;99.90;;;;;;4996873;28;20042;-84
2023/04/14 04:18:49;;;;;;;13.13;4.60;;;2.00;99.90;;;;;;5000638;28;20136;-84
2023/04/14 04:21:17;;;;;;;12.10;4.73;;;2.00;99.90;;;;;;5013881;28;20846;-84
2023/04/14 04:23:47;;;;;;;12.77;4.83;;;2.00;99.90;;;;;;5014504;28;20046;-84
2023/04/14 04:26:25;;;;;;;13.83;5.00;;;1.90;99.90;;;;;;5013809;28;20077;-84
2023/04/14 04:28:51;;;;;;;11.60;5.00;;;1.60;99.90;;;;;;5009135;28;20084;-84
2023/04/14 04:31:34;;;;;;;13.70;5.10;;;1.80;99.90;;;;;;4997103;28;20046;-84
2023/04/14 04:34:01;;;;;;;12.27;4.50;;;1.80;99.90;;;;;;4996097;28;20052;-84
2023/04/14 04:36:30;;;;;;;11.23;4.77;;;1.70;99.90;;;;;;4997180;28;20046;-84
2023/04/14 04:38:56;;;;;;;12.77;4.93;;;1.80;99.90;;;;;;5014007;28;20046;-84
2023/04/14 04:41:22;;;;;;;15.20;5.40;;;1.80;99.90;;;;;;4996275;28;20404;-84
2023/04/14 04:43:48;;;;;;;13.10;5.17;;;1.70;99.90;;;;;;5014662;28;20437;-84
2023/04/14 04:46:36;;;;;;;13.57;5.40;;;1.70;99.90;;;;;;4996453;28;20054;-84
2023/04/14 04:49:01;;;;;;;13.03;5.43;;;1.70;99.90;;;;;;4995587;28;20414;-84
2023/04/14 04:51:27;;;;;;;17.63;6.40;;;1.70;99.90;;;;;;5014619;28;20056;-84
2023/04/14 04:53:53;;;;;;;12.67;5.33;;;1.70;99.90;;;;;;4996234;28;20586;-84
2023/04/14 04:56:20;;;;;;;14.07;5.43;;;1.70;99.90;;;;;;4995692;28;20048;-84
2023/04/14 04:58:47;;;;;;;14.03;6.00;;;1.70;99.90;;;;;;4997623;28;20081;-84
2023/04/14 05:01:14;;;;;;;13.10;5.80;;;1.70;99.90;;;;;;5012818;28;20516;-84
2023/04/14 05:03:41;;;;;;;12.07;5.23;;;1.70;99.90;;;;;;5011955;28;20046;-84
2023/04/14 05:06:07;;;;;;;12.70;5.47;;;1.80;99.90;;;;;;5013702;28;20049;-84
2023/04/14 05:08:32;;;;;;;14.10;5.33;;;1.80;99.90;;;;;;5012636;28;20413;-84
2023/04/14 05:11:11;;;;;;;13.77;5.60;;;1.80;99.90;;;;;;5012064;28;20041;-84
2023/04/14 05:13:49;;;;;;;12.83;5.40;;;1.70;99.90;;;;;;5012520;28;20429;-84
2023/04/14 05:16:30;;;;;;;13.13;5.77;;;2.00;99.90;;;;;;5011339;28;20050;-84
2023/04/14 05:18:56;;;;;;;14.53;6.20;;;3.90;99.90;;;;;;5013488;28;20030;-84
2023/04/14 05:21:22;;;;;;;12.87;5.77;;;2.20;99.90;;;;;;5012436;28;20045;-84
2023/04/14 05:23:48;;;;;;;12.90;5.87;;;2.30;99.90;;;;;;5012996;28;20433;-84
2023/04/14 05:26:15;;;;;;;17.80;6.50;;;2.40;99.90;;;;;;5006535;28;20524;-84
2023/04/14 05:28:41;;;;;;;18.03;6.30;;;2.60;99.90;;;;;;4995792;28;20137;-85
2023/04/14 05:31:07;;;;;;;14.60;6.40;;;2.60;99.90;;;;;;5002460;28;20128;-84
2023/04/14 05:33:36;;;;;;;16.60;6.13;;;2.80;99.90;;;;;;4995390;28;20041;-87
2023/04/14 05:36:09;;;;;;;15.23;6.27;;;2.90;99.90;;;;;;5011640;28;20038;-86
2023/04/14 05:38:47;;;;;;;14.80;6.13;;;3.10;99.90;;;;;;5010884;28;20482;-86
2023/04/14 05:42:04;;;;;;;15.93;6.10;;;3.20;99.90;;;;;;5109312;22;20575;-88
2023/04/14 05:45:20;;;;;;;11.70;5.70;;;4.30;99.90;;;;;;5010990;28;20050;-87
2023/04/14 05:47:56;;;;;;;14.83;6.17;;;4.40;99.90;;;;;;5012831;28;20054;-87
2023/04/14 05:51:03;;;;;;;12.97;5.87;;;4.50;99.90;;;;;;5011915;28;20053;-88
2023/04/14 05:53:37;;;;;;;11.67;5.80;;;5.00;99.90;;;;;;4954824;28;20490;-88
2023/04/14 05:56:13;;;;;;;12.47;6.27;;;3.90;99.90;;;;;;4932922;29;20102;-87
2023/04/14 05:59:15;;;;;;;12.63;6.57;;;4.50;99.90;;;;;;4995365;28;20052;-89
2023/04/14 06:02:05;;;;;;;15.43;6.07;;;4.10;99.90;;;;;;5069093;22;20293;-88
2023/04/14 06:04:35;;;;;;;12.10;5.90;;;4.80;99.90;;;;;;5177021;22;20501;-87
2023/04/14 06:11:01;;;;;;;12.50;5.67;;;4.20;99.90;;;;;;5017523;28;20046;-85
2023/04/14 06:13:38;;;;;;;15.03;5.83;;;4.30;99.90;;;;;;5013770;28;20420;-86
2023/04/14 06:16:23;;;;;;;12.90;5.73;;;4.30;99.90;;;;;;5014509;28;20120;-86
2023/04/14 06:18:57;;;;;;;12.87;6.13;;;4.20;99.90;;;;;;5014850;28;20087;-85
2023/04/14 06:21:41;;;;;;;16.13;6.10;;;3.50;99.90;;;;;;5013455;28;20045;-85
2023/04/14 06:24:25;;;;;;;12.57;5.53;;;4.10;99.90;;;;;;5032079;28;20037;-85
2023/04/14 06:26:51;;;;;;;13.30;5.20;;;4.30;99.90;;;;;;5013042;28;20053;-86
2023/04/14 06:29:17;;;;;;;12.93;5.30;;;4.70;99.90;;;;;;5032168;28;20040;-85
2023/04/14 06:31:43;;;;;;;13.80;4.97;;;4.60;99.90;;;;;;5014810;28;20049;-85
2023/04/14 06:34:21;;;;;;;13.60;5.03;;;4.30;99.90;;;;;;5013377;28;20047;-86
2023/04/14 06:37:05;;;;;;;13.53;5.10;;;4.90;99.90;;;;;;5014168;28;20091;-86
2023/04/14 06:39:36;;;;;;;10.53;4.50;;;5.50;99.90;;;;;;5014861;28;20397;-87
2023/04/14 06:42:12;;;;;;;13.97;4.87;;;5.10;99.90;;;;;;5030561;28;20556;-88
2023/04/14 06:44:56;;;;;;;12.83;4.77;;;5.10;99.90;;;;;;5014219;28;20057;-87
2023/04/14 06:50:09;;;;;;;12.70;4.20;;;5.50;99.90;;;;;;5141873;22;19959;-83
2023/04/14 06:52:38;;;;;;;13.03;4.60;;;5.60;99.90;;;;;;5034256;28;20545;-86
2023/04/14 06:55:20;;;;;;;11.70;3.70;;;6.30;99.90;;;;;;5033780;28;20056;-92
2023/04/14 06:57:58;;;;;;;13.17;3.30;;;6.90;99.90;;;;;;5034330;28;20179;-85
2023/04/14 07:00:38;;;;;;;12.07;3.87;;;5.20;99.90;;;;;;5034600;28;20049;-85
2023/04/14 07:03:04;;;;;;;8.80;3.40;;;6.40;99.90;;;;;;5035861;28;20041;-85
2023/04/14 07:07:58;;;;;;;10.67;3.50;;;6.60;99.90;;;;;;5048483;22;20513;-87
2023/04/14 07:10:24;;;;;;;11.90;3.50;;;6.70;99.90;;;;;;5024292;28;20056;-87
2023/04/14 07:13:27;;;;;;;;;;;7.40;99.90;;;;;;5018301;28;20061;-86
2023/04/14 07:15:55;;;;;;;13.60;3.80;;;6.90;99.90;;;;;;5016278;28;19971;-85
2023/04/14 07:18:39;;;;;;;11.07;3.70;;;8.00;99.90;;;;;;5016621;28;20052;-86
2023/04/14 07:21:14;;;;;;;9.65;3.42;;;7.00;99.90;;;;;;5017713;28;20132;-86
2023/04/14 07:23:57;;;;;;;11.50;3.58;;;8.20;99.90;;;;;;5034433;28;20041;-86
2023/04/14 07:26:44;;;;;;;13.80;3.85;;;7.60;99.90;;;;;;5024882;28;20052;-87
2023/04/14 07:32:51;;;;;;;11.68;3.60;;;8.00;99.90;;;;;;5021435;22;20138;-86
2023/04/14 07:35:29;;;;;;;11.13;3.50;;;9.40;99.90;;;;;;5002634;28;20046;-86
2023/04/14 07:38:11;;;;;;;11.30;3.40;;;7.90;99.90;;;;;;4998900;28;20057;-87
2023/04/14 07:41:24;;;;;;;8.95;3.13;;;8.60;99.90;;;;;;5010562;28;20058;-87
2023/04/14 07:43:57;;;;;;;12.68;3.53;;;8.00;99.90;;;;;;5012893;28;20133;-90
2023/04/14 07:46:26;;;;;;;10.13;3.17;;;9.60;99.90;;;;;;5012866;28;20461;-88
2023/04/14 07:49:03;;;;;;;9.60;3.60;;;8.60;99.90;;;;;;5042336;22;20054;-87
2023/04/14 07:52:11;;;;;;;10.90;3.70;;;8.10;99.90;;;;;;5031062;28;20124;-88
2023/04/14 07:55:46;;;;;;;12.30;3.70;;;8.60;99.90;;;;;;5012548;28;20058;-87
2023/04/14 07:58:36;;;;;;;;;;;;;;;;;;;;;
2023/04/14 08:01:58;;;;;;;10.20;2.90;;;8.70;99.90;;;;;;4993377;28;20054;-87
2023/04/14 08:04:42;;;;;;;9.25;2.63;;;9.30;99.90;;;;;;4953711;28;20043;-87
2023/04/14 08:07:10;;;;;;;14.23;3.63;;;9.40;99.90;;;;;;4954161;28;20062;-87
2023/04/14 08:09:50;;;;;;;11.70;3.00;;;9.40;99.90;;;;;;4954088;29;20059;-86
2023/04/14 08:16:08;;;;;;;12.65;3.10;;;9.50;99.90;;;;;;4885605;29;20053;-87
2023/04/14 08:18:56;;;;;;;;;;;;;;;;;;;;;
2023/04/14 08:21:40;;;;;;;10.00;2.92;;;9.80;99.90;;;;;;4873694;29;20437;-87
2023/04/14 08:24:18;;;;;;;9.88;3.05;;;11.20;99.90;;;;;;4878328;29;20092;-87
2023/04/14 08:26:56;;;;;;;8.80;2.92;;;11.00;99.90;;;;;;4878126;29;20058;-87
2023/04/14 08:29:43;;;;;;;10.43;3.15;;;9.60;99.90;;;;;;4895530;29;20065;-87
2023/04/14 08:32:20;;;;;;;9.23;2.95;;;10.20;99.90;;;;;;4896799;29;20583;-87
2023/04/14 08:34:51;;;;;;;11.15;2.55;;;11.00;99.90;;;;;;4882684;29;20071;-87
2023/04/14 08:37:29;;;;;;;10.60;2.80;;;10.40;99.90;;;;;;4884414;29;20045;-86
2023/04/14 08:39:55;;;;;;;11.63;2.40;;;10.50;99.90;;;;;;4926807;28;20063;-87
2023/04/14 08:42:26;;;;;;;10.68;2.22;;;9.90;99.90;;;;;;5016906;28;20053;-87
2023/04/14 08:47:58;;;;;;;9.45;2.22;;;10.60;99.90;;;;;;5031174;28;20065;-87
2023/04/14 08:51:03;;;;;;;8.85;2.20;;;11.10;99.90;;;;;;5032050;28;20045;-88
2023/04/14 08:53:44;;;;;;;9.57;2.13;;;10.10;99.90;;;;;;5032766;28;20184;-87
2023/04/14 08:56:12;;;;;;;7.95;2.30;;;12.00;99.90;;;;;;5030975;28;20046;-86
2023/04/14 08:58:57;;;;;;;11.73;2.47;;;10.80;99.90;;;;;;5033101;28;20041;-86
2023/04/14 09:01:23;;;;;;;10.57;2.70;;;12.50;99.90;;;;;;5031562;28;20045;-86
2023/04/14 09:03:57;;;;;;;8.90;2.13;;;12.20;99.90;;;;;;5032395;28;20069;-90
2023/04/14 09:06:50;;;;;;;13.52;2.90;;;11.20;99.90;;;;;;5028408;23;20050;-88
2023/04/14 09:09:25;;;;;;;12.15;2.50;;;11.10;99.90;;;;;;4963047;28;20055;-88
2023/04/14 09:12:07;;;;;;;10.93;2.53;;;12.00;99.90;;;;;;4975633;28;20042;-88
2023/04/14 09:14:57;;;;;;;9.70;3.10;;;12.00;99.90;;;;;;4992048;28;20050;-88
2023/04/14 09:17:24;;;;;;;10.40;2.80;;;10.90;99.90;;;;;;4975264;28;20050;-81
2023/04/14 09:19:58;;;;;;;10.80;3.05;;;12.40;99.90;;;;;;4976088;28;20494;-87
2023/04/14 09:22:24;;;;;;;8.77;2.70;;;11.50;99.90;;;;;;4993656;28;20046;-87
2023/04/14 09:24:50;;;;;;;10.30;3.00;;;12.90;99.90;;;;;;4976466;28;20034;-87
2023/04/14 09:27:15;;;;;;;9.68;2.88;;;11.80;99.90;;;;;;4973292;28;20483;-85
2023/04/14 09:29:41;;;;;;;9.70;2.70;;;11.60;99.90;;;;;;4973747;28;20085;-86
2023/04/14 09:32:14;;;;;;;13.90;2.85;;;12.50;99.90;;;;;;4990450;28;20046;-86
2023/04/14 09:34:53;;;;;;;12.32;3.03;;;12.90;99.90;;;;;;4992715;28;20046;-86
2023/04/14 09:37:44;;;;;;;10.65;3.03;;;11.20;99.90;;;;;;4991422;28;20088;-87
2023/04/14 09:40:10;;;;;;;10.68;3.20;;;13.60;99.90;;;;;;4993346;28;20042;-86
2023/04/14 09:42:41;;;;;;;12.23;3.30;;;13.20;99.90;;;;;;4993982;28;20038;-88
2023/04/14 09:45:14;;;;;;;9.77;2.70;;;13.40;99.90;;;;;;4991415;28;20181;-91
2023/04/14 09:48:05;;;;;;;14.82;3.33;;;13.20;99.90;;;;;;4974583;28;20042;-89
2023/04/14 10:08:31;;;;;;;12.73;3.40;;;13.00;99.90;;;;;;4961076;28;19993;-89
2023/04/14 10:11:19;;;;;;;12.15;3.10;;;13.20;99.90;;;;;;5432694;22;20057;-90
2023/04/14 10:17:56;;;;;;;11.73;2.78;;;13.60;99.90;;;;;;5064368;22;20057;-89
2023/04/14 10:21:15;;;;;;;9.52;2.85;;;13.80;99.90;;;;;;5031403;28;20053;-90
2023/04/14 10:24:30;;;;;;;9.60;2.80;;;14.00;99.90;;;;;;5031797;28;20083;-88
2023/04/14 10:27:01;;;;;;;13.18;2.95;;;14.10;99.90;;;;;;5087374;22;20055;-89
2023/04/14 10:30:18;;;;;;;9.75;2.50;;;14.30;99.90;;;;;;5032354;28;20055;-89
2023/04/14 10:40:08;;;;;;;9.80;2.85;;;14.80;99.90;;;;;;5071264;28;20487;-87
2023/04/14 10:42:54;;;;;;;9.77;2.95;;;15.20;99.90;;;;;;5053822;28;20523;-89
2023/04/14 10:45:29;;;;;;;10.18;3.40;;;16.60;99.90;;;;;;4993554;22;1357571;-88
2023/04/14 10:48:41;;;;;;;10.82;3.72;;;16.30;99.90;;;;;;5054459;23;20062;-87
2023/04/14 10:51:09;;;;;;;11.20;3.42;;;14.60;99.90;;;;;;5014567;28;20052;-87
2023/04/14 11:00:22;;;;;;;11.27;3.15;;;16.00;99.90;;;;;;5769519;22;21260;-84
2023/04/14 11:02:58;;;;;;;10.85;3.25;;;16.10;99.90;;;;;;4994538;28;20057;-86
2023/04/14 11:05:24;;;;;;;13.27;3.70;;;15.40;99.90;;;;;;5014509;28;20073;-87
2023/04/14 11:07:57;;;;;;;12.68;3.70;;;17.30;99.90;;;;;;5028483;28;20079;-87
2023/04/14 11:10:37;;;;;;;10.00;3.28;;;16.10;99.90;;;;;;5031776;28;20088;-87
2023/04/14 11:16:28;;;;;;;10.43;3.70;;;16.40;98.80;;;;;;5000526;28;20056;-87
2023/04/14 11:18:54;;;;;;;9.77;3.60;;;17.20;99.90;;;;;;5031144;28;20056;-87
2023/04/14 11:21:48;;;;;;;9.32;3.20;;;17.00;99.90;;;;;;5030793;28;20485;-87
2023/04/14 11:24:32;;;;;;;13.15;3.60;;;16.40;99.80;;;;;;5012551;28;20045;-87
2023/04/14 11:26:58;;;;;;;12.77;3.50;;;16.60;99.90;;;;;;4996886;28;20075;-87
2023/04/14 11:29:34;;;;;;;12.75;3.85;;;17.10;99.90;;;;;;5012883;28;20045;-86
2023/04/14 11:32:05;;;;;;;9.73;3.03;;;16.50;99.90;;;;;;5031217;28;20049;-87
2023/04/14 11:34:36;;;;;;;11.15;3.92;;;16.60;99.90;;;;;;5031601;28;20057;-87
2023/04/14 11:37:03;;;;;;;10.85;3.47;;;17.20;99.90;;;;;;5039213;28;20547;-87
2023/04/14 11:39:29;;;;;;;10.82;4.10;;;17.90;99.90;;;;;;5035178;28;20038;-88
2023/04/14 11:41:59;;;;;;;11.65;3.85;;;18.30;99.90;;;;;;5035360;28;20038;-87
2023/04/14 11:44:24;;;;;;;13.10;3.40;;;18.60;99.90;;;;;;5034012;28;20393;-87
2023/04/14 11:46:50;;;;;;;10.25;3.20;;;18.00;99.90;;;;;;5035377;28;20038;-87
2023/04/14 11:49:16;;;;;;;11.32;3.53;;;18.00;99.90;;;;;;5041849;22;20056;-86
2023/04/14 11:51:42;;;;;;;11.45;4.10;;;17.40;99.90;;;;;;5056999;22;20045;-86
2023/04/14 11:54:11;;;;;;;11.50;4.03;;;17.70;99.90;;;;;;4996947;28;20077;-86
2023/04/14 11:56:36;;;;;;;9.77;3.80;;;17.50;99.90;;;;;;5015682;28;20060;-86
2023/04/14 11:59:04;;;;;;;10.98;4.13;;;17.80;99.90;;;;;;4997127;28;20046;-86
2023/04/14 12:01:30;;;;;;;10.63;3.90;;;17.60;99.90;;;;;;4998088;28;20457;-87
2023/04/14 12:03:59;;;;;;;10.85;4.18;;;16.90;99.90;;;;;;5014393;28;20493;-86
2023/04/14 12:09:30;;;;;;;12.13;4.55;;;17.10;99.90;;;;;;5015699;28;20045;-85
2023/04/14 12:11:56;;;;;;;10.98;4.28;;;16.10;99.90;;;;;;4996861;28;20121;-86
2023/04/14 12:14:22;;;;;;;12.07;4.68;;;16.90;99.90;;;;;;4997437;28;20049;-86
2023/04/14 12:16:48;;;;;;;12.88;4.68;;;17.70;99.90;;;;;;4997588;28;20049;-86
2023/04/14 12:19:16;;;;;;;11.65;3.95;;;17.10;99.90;;;;;;4996593;28;20053;-86
2023/04/14 12:21:51;;;;;;;10.30;3.25;;;18.10;99.90;;;;;;4997962;28;20478;-87
2023/04/14 12:24:17;;;;;;;10.15;3.08;;;17.90;99.70;;;;;;4997273;28;20077;-87
2023/04/14 12:26:43;;;;;;;10.23;3.75;;;17.70;99.90;;;;;;4996802;28;20111;-86
2023/04/14 12:29:12;;;;;;;9.35;3.13;;;17.50;99.90;;;;;;4996712;28;20512;-86
2023/04/14 12:31:42;;;;;;;12.68;3.42;;;18.00;99.50;;;;;;5015106;28;20163;-86
2023/04/14 12:34:08;;;;;;;9.82;2.83;;;17.70;99.90;;;;;;4996433;28;20155;-86
2023/04/14 12:36:39;;;;;;;10.20;3.38;;;18.50;99.90;;;;;;4980737;28;20042;-86
2023/04/14 12:39:13;;;;;;;11.75;3.15;;;17.80;96.50;;;;;;4995745;28;20042;-86
2023/04/14 12:41:40;;;;;;;9.25;2.97;;;17.80;98.00;;;;;;5008805;28;20038;-86
2023/04/14 12:44:32;;;;;;;12.20;3.10;;;17.90;99.90;;;;;;4996156;28;20053;-86
2023/04/14 12:46:58;;;;;;;9.48;3.40;;;17.70;96.30;;;;;;4973616;28;20058;-86
2023/04/14 12:49:37;;;;;;;9.40;3.03;;;17.20;99.10;;;;;;4977243;28;20129;-86
2023/04/14 12:52:07;;;;;;;10.85;3.95;;;17.50;99.10;;;;;;4976241;28;20403;-86
2023/04/14 12:55:06;;;;;;;10.48;4.20;;;18.10;99.90;;;;;;4996082;28;20054;-86
2023/04/14 12:57:38;;;;;;;12.13;4.47;;;18.40;97.20;;;;;;5013080;28;20050;-86
2023/04/14 13:00:25;;;;;;;11.30;3.60;;;19.00;99.40;;;;;;4997302;28;20117;-87
2023/04/14 13:02:55;;;;;;;11.18;4.55;;;19.00;98.90;;;;;;4994654;28;20057;-87
2023/04/14 13:05:45;;;;;;;13.50;3.97;;;18.80;98.80;;;;;;4987131;28;20041;-87
2023/04/14 13:08:17;;;;;;;11.65;4.28;;;19.10;98.10;;;;;;5014189;28;20446;-86
2023/04/14 13:10:58;;;;;;;9.98;4.20;;;20.30;99.10;;;;;;5012200;28;20041;-86
2023/04/14 13:13:30;;;;;;;11.35;4.20;;;19.10;95.80;;;;;;5012458;28;20092;-87
2023/04/14 13:15:56;;;;;;;12.48;4.15;;;19.50;96.50;;;;;;5011599;28;20213;-87
2023/04/14 13:18:34;;;;;;;10.63;3.97;;;19.10;99.50;;;;;;5012596;28;20046;-86
2023/04/14 13:21:01;;;;;;;12.88;3.30;;;18.70;98.40;;;;;;5013309;28;20482;-86
2023/04/14 13:23:46;;;;;;;10.68;3.17;;;19.30;99.90;;;;;;5011827;28;20383;-86
2023/04/14 13:26:12;;;;;;;10.50;3.58;;;17.90;99.60;;;;;;5012701;28;20058;-86
2023/04/14 13:28:38;;;;;;;10.05;3.33;;;17.80;99.80;;;;;;5011685;28;20149;-86
2023/04/14 13:31:11;;;;;;;11.82;3.92;;;17.20;99.70;;;;;;5005295;28;20043;-85
2023/04/14 13:34:18;;;;;;;10.80;3.15;;;18.20;99.60;;;;;;4975694;28;20493;-87
2023/04/14 13:36:59;;;;;;;10.15;3.75;;;16.70;97.50;;;;;;5012449;28;20046;-84
2023/04/14 13:39:24;;;;;;;10.95;3.42;;;17.50;98.90;;;;;;4983226;28;20489;-84
2023/04/14 13:41:51;;;;;;;11.05;3.50;;;17.20;99.90;;;;;;5012545;28;20042;-84
2023/04/14 13:44:17;;;;;;;10.13;3.53;;;17.40;99.80;;;;;;4994617;28;20046;-85
2023/04/14 13:46:52;;;;;;;10.00;3.60;;;16.60;99.90;;;;;;5012053;28;20054;-85
2023/04/14 13:49:18;;;;;;;10.68;3.67;;;18.10;99.60;;;;;;5011774;28;20044;-84
2023/04/14 13:51:49;;;;;;;11.73;3.60;;;16.70;99.60;;;;;;5010758;28;20053;-84
2023/04/14 13:54:15;;;;;;;9.88;3.50;;;16.40;98.90;;;;;;5011932;28;20045;-84
2023/04/14 13:56:40;;;;;;;10.43;3.40;;;16.70;98.70;;;;;;5010891;28;20830;-85
2023/04/14 13:59:06;;;;;;;10.05;3.38;;;16.30;99.60;;;;;;5011159;28;20053;-84
2023/04/14 14:01:34;;;;;;;10.82;3.55;;;17.30;99.80;;;;;;5011861;28;20041;-85
2023/04/14 14:04:15;;;;;;;10.68;3.33;;;16.40;99.80;;;;;;5008392;28;20060;-84
2023/04/14 14:06:41;;;;;;;11.38;3.95;;;17.00;99.90;;;;;;5011607;28;20046;-84
2023/04/14 14:09:06;;;;;;;10.70;3.88;;;15.60;99.90;;;;;;5010675;28;20096;-87
2023/04/14 14:11:43;;;;;;;10.25;3.38;;;16.60;99.90;;;;;;5012382;28;20048;-85
2023/04/14 14:14:27;;;;;;;9.60;3.40;;;15.30;99.80;;;;;;5012843;28;20121;-84
2023/04/14 14:17:02;;;;;;;11.05;4.18;;;15.40;99.90;;;;;;5011397;28;20125;-85
2023/04/14 14:19:28;;;;;;;9.93;3.30;;;16.40;99.70;;;;;;5010819;28;20045;-84
2023/04/14 14:21:53;;;;;;;9.13;3.40;;;16.80;99.90;;;;;;5011367;28;20042;-85
2023/04/14 14:24:25;;;;;;;9.40;3.67;;;15.60;99.90;;;;;;5011115;28;20041;-84
2023/04/14 14:26:50;;;;;;;12.40;3.58;;;15.90;99.40;;;;;;5010634;28;20052;-85